PHRTE BGKK-BGSF
Flight info
| Callsign | PHRTE |
|---|---|
| Flight time | 2h 26m |
| Altitude | 10000 |
| Route | DA UW28 GANGI |
| Aircraft | DA42/L-SBDGRY/S |
Departure
| Time | 2026-05-08 18:04 |
|---|---|
| Airport | Kulusuk Airport (BGKK) |
Arrival
| Time | 2026-05-08 20:30 |
|---|---|
| Airport | Kangerlussuaq International Airport (BGSF) |
| Time | Latitude | Longitude | Altitude | Speed | Heading |
|---|---|---|---|---|---|
| 2026-05-08 17:37 | 65.57418 | -37.13477 | 108 ft | 0 kts | 262° |
| 2026-05-08 17:54 | 65.57418 | -37.13480 | 108 ft | 1 kts | 224° |
| 2026-05-08 17:54 | 65.57404 | -37.13477 | 108 ft | 4 kts | 165° |
| 2026-05-08 17:55 | 65.57387 | -37.13485 | 108 ft | 0 kts | 224° |
| 2026-05-08 17:55 | 65.57385 | -37.13529 | 108 ft | 3 kts | 302° |
| 2026-05-08 17:55 | 65.57378 | -37.13526 | 108 ft | 3 kts | 111° |
| 2026-05-08 17:55 | 65.57376 | -37.13514 | 108 ft | 0 kts | 105° |
| 2026-05-08 17:56 | 65.57368 | -37.13466 | 108 ft | 3 kts | 144° |
| 2026-05-08 17:56 | 65.57367 | -37.13464 | 108 ft | 0 kts | 144° |
| 2026-05-08 17:58 | 65.57342 | -37.13441 | 117 ft | 6 kts | 168° |
| 2026-05-08 17:59 | 65.57325 | -37.13432 | 107 ft | 0 kts | 161° |
| 2026-05-08 18:02 | 65.57314 | -37.13420 | 107 ft | 4 kts | 146° |
| 2026-05-08 18:02 | 65.57310 | -37.13371 | 108 ft | 2 kts | 82° |
| 2026-05-08 18:02 | 65.57311 | -37.13369 | 108 ft | 0 kts | 83° |
| 2026-05-08 18:03 | 65.57313 | -37.13299 | 108 ft | 21 kts | 84° |
| 2026-05-08 18:03 | 65.57346 | -37.12486 | 142 ft | 67 kts | 84° |
| 2026-05-08 18:03 | 65.57408 | -37.11361 | 462 ft | 69 kts | 81° |
| 2026-05-08 18:04 | 65.57759 | -37.10556 | 649 ft | 96 kts | 14° |
| 2026-05-08 18:04 | 65.58386 | -37.11430 | 927 ft | 121 kts | 305° |
| 2026-05-08 18:04 | 65.58361 | -37.13502 | 1277 ft | 127 kts | 253° |
| 2026-05-08 18:04 | 65.58088 | -37.15484 | 1647 ft | 125 kts | 254° |
| 2026-05-08 18:05 | 65.57737 | -37.17379 | 2051 ft | 120 kts | 240° |
| 2026-05-08 18:05 | 65.57346 | -37.19130 | 2431 ft | 118 kts | 240° |
| 2026-05-08 18:05 | 65.57132 | -37.21071 | 2741 ft | 123 kts | 277° |
| 2026-05-08 18:05 | 65.57361 | -37.23012 | 3095 ft | 118 kts | 293° |
| 2026-05-08 18:06 | 65.57646 | -37.24871 | 3441 ft | 117 kts | 292° |
| 2026-05-08 18:06 | 65.57929 | -37.26695 | 3787 ft | 115 kts | 291° |
| 2026-05-08 18:06 | 65.58207 | -37.28491 | 4131 ft | 113 kts | 290° |
| 2026-05-08 18:06 | 65.58478 | -37.30248 | 4481 ft | 111 kts | 290° |
| 2026-05-08 18:07 | 65.58743 | -37.31975 | 4832 ft | 109 kts | 289° |
| 2026-05-08 18:07 | 65.58918 | -37.33115 | 5052 ft | 109 kts | 289° |
| 2026-05-08 18:07 | 65.59178 | -37.34812 | 5384 ft | 107 kts | 287° |
| 2026-05-08 18:07 | 65.59511 | -37.36989 | 5853 ft | 102 kts | 285° |
| 2026-05-08 18:08 | 65.59759 | -37.38612 | 6158 ft | 105 kts | 287° |
| 2026-05-08 18:08 | 65.59927 | -37.39716 | 6362 ft | 105 kts | 286° |
| 2026-05-08 18:08 | 65.60177 | -37.41352 | 6703 ft | 104 kts | 286° |
| 2026-05-08 18:08 | 65.60428 | -37.43000 | 6997 ft | 104 kts | 286° |
| 2026-05-08 18:09 | 65.60677 | -37.44641 | 7298 ft | 104 kts | 286° |
| 2026-05-08 18:09 | 65.60930 | -37.46305 | 7590 ft | 107 kts | 288° |
| 2026-05-08 18:09 | 65.61189 | -37.48011 | 7893 ft | 107 kts | 288° |
| 2026-05-08 18:09 | 65.61443 | -37.49687 | 8209 ft | 107 kts | 288° |
| 2026-05-08 18:10 | 65.61700 | -37.51380 | 8560 ft | 107 kts | 288° |
| 2026-05-08 18:10 | 65.61956 | -37.53071 | 8884 ft | 107 kts | 288° |
| 2026-05-08 18:10 | 65.62212 | -37.54763 | 9188 ft | 107 kts | 288° |
| 2026-05-08 18:10 | 65.62468 | -37.56453 | 9530 ft | 107 kts | 288° |
| 2026-05-08 18:11 | 65.62723 | -37.58144 | 9871 ft | 107 kts | 287° |
| 2026-05-08 18:11 | 65.62978 | -37.59831 | 10188 ft | 107 kts | 287° |
| 2026-05-08 18:11 | 65.63239 | -37.61566 | 10330 ft | 117 kts | 288° |
| 2026-05-08 18:11 | 65.63534 | -37.63511 | 10338 ft | 128 kts | 288° |
| 2026-05-08 18:12 | 65.63851 | -37.65613 | 10340 ft | 136 kts | 288° |
| 2026-05-08 18:12 | 65.64180 | -37.67809 | 10341 ft | 141 kts | 288° |
| 2026-05-08 18:12 | 65.64518 | -37.70067 | 10341 ft | 144 kts | 288° |
| 2026-05-08 18:12 | 65.64862 | -37.72362 | 10340 ft | 146 kts | 288° |
| 2026-05-08 18:13 | 65.65210 | -37.74696 | 10339 ft | 148 kts | 288° |
| 2026-05-08 18:13 | 65.65556 | -37.77012 | 10340 ft | 148 kts | 288° |
| 2026-05-08 18:13 | 65.65907 | -37.79364 | 10331 ft | 148 kts | 288° |
| 2026-05-08 18:13 | 65.66258 | -37.81713 | 10328 ft | 149 kts | 288° |
| 2026-05-08 18:14 | 65.66612 | -37.84088 | 10328 ft | 150 kts | 288° |
| 2026-05-08 18:14 | 65.66966 | -37.86478 | 10330 ft | 151 kts | 288° |
| 2026-05-08 18:14 | 65.67323 | -37.88881 | 10329 ft | 152 kts | 288° |
| 2026-05-08 18:14 | 65.67679 | -37.91282 | 10327 ft | 151 kts | 288° |
| 2026-05-08 18:15 | 65.68035 | -37.93679 | 10325 ft | 151 kts | 288° |
| 2026-05-08 18:15 | 65.68387 | -37.96066 | 10326 ft | 150 kts | 288° |
| 2026-05-08 18:15 | 65.68738 | -37.98442 | 10325 ft | 149 kts | 288° |
| 2026-05-08 18:15 | 65.69088 | -38.00810 | 10324 ft | 149 kts | 287° |
| 2026-05-08 18:16 | 65.69436 | -38.03173 | 10324 ft | 149 kts | 288° |
| 2026-05-08 18:16 | 65.69785 | -38.05546 | 10327 ft | 148 kts | 288° |
| 2026-05-08 18:16 | 65.70131 | -38.07902 | 10325 ft | 148 kts | 287° |
| 2026-05-08 18:16 | 65.70477 | -38.10262 | 10325 ft | 148 kts | 287° |
| 2026-05-08 18:17 | 65.70822 | -38.12620 | 10328 ft | 149 kts | 287° |
| 2026-05-08 18:17 | 65.71164 | -38.14954 | 10326 ft | 149 kts | 287° |
| 2026-05-08 18:17 | 65.71509 | -38.17317 | 10328 ft | 148 kts | 288° |
| 2026-05-08 18:17 | 65.71857 | -38.19701 | 10328 ft | 150 kts | 287° |
| 2026-05-08 18:18 | 65.72206 | -38.22098 | 10323 ft | 151 kts | 287° |
| 2026-05-08 18:18 | 65.72558 | -38.24507 | 10325 ft | 151 kts | 287° |
| 2026-05-08 18:18 | 65.72910 | -38.26931 | 10321 ft | 153 kts | 287° |
| 2026-05-08 18:18 | 65.73260 | -38.29350 | 10319 ft | 151 kts | 287° |
| 2026-05-08 18:19 | 65.73609 | -38.31746 | 10315 ft | 149 kts | 287° |
| 2026-05-08 18:19 | 65.73952 | -38.34125 | 10326 ft | 150 kts | 287° |
| 2026-05-08 18:19 | 65.74294 | -38.36490 | 10331 ft | 149 kts | 287° |
| 2026-05-08 18:19 | 65.74640 | -38.38896 | 10321 ft | 148 kts | 287° |
| 2026-05-08 18:20 | 65.74977 | -38.41223 | 10323 ft | 149 kts | 287° |
| 2026-05-08 18:20 | 65.75320 | -38.43603 | 10320 ft | 149 kts | 287° |
| 2026-05-08 18:20 | 65.75661 | -38.45979 | 10318 ft | 148 kts | 287° |
| 2026-05-08 18:20 | 65.76001 | -38.48340 | 10318 ft | 148 kts | 287° |
| 2026-05-08 18:21 | 65.76340 | -38.50707 | 10321 ft | 149 kts | 287° |
| 2026-05-08 18:21 | 65.76681 | -38.53084 | 10320 ft | 148 kts | 287° |
| 2026-05-08 18:21 | 65.77020 | -38.55463 | 10310 ft | 149 kts | 287° |
| 2026-05-08 18:21 | 65.77360 | -38.57843 | 10311 ft | 149 kts | 287° |
| 2026-05-08 18:22 | 65.77700 | -38.60224 | 10313 ft | 149 kts | 287° |
| 2026-05-08 18:22 | 65.78040 | -38.62610 | 10311 ft | 149 kts | 287° |
| 2026-05-08 18:22 | 65.78378 | -38.64987 | 10312 ft | 148 kts | 287° |
| 2026-05-08 18:22 | 65.78716 | -38.67363 | 10311 ft | 148 kts | 287° |
| 2026-05-08 18:23 | 65.79048 | -38.69709 | 10311 ft | 148 kts | 287° |
| 2026-05-08 18:23 | 65.79386 | -38.72092 | 10313 ft | 149 kts | 287° |
| 2026-05-08 18:23 | 65.79725 | -38.74490 | 10311 ft | 149 kts | 287° |
| 2026-05-08 18:23 | 65.80063 | -38.76880 | 10314 ft | 149 kts | 287° |
| 2026-05-08 18:24 | 65.80402 | -38.79277 | 10310 ft | 149 kts | 287° |
| 2026-05-08 18:24 | 65.80739 | -38.81671 | 10310 ft | 149 kts | 287° |
| 2026-05-08 18:24 | 65.81075 | -38.84062 | 10311 ft | 149 kts | 287° |
| 2026-05-08 18:24 | 65.81411 | -38.86453 | 10311 ft | 149 kts | 287° |
| 2026-05-08 18:25 | 65.81747 | -38.88843 | 10311 ft | 149 kts | 287° |
| 2026-05-08 18:25 | 65.82083 | -38.91243 | 10310 ft | 150 kts | 287° |
| 2026-05-08 18:25 | 65.82420 | -38.93650 | 10295 ft | 150 kts | 287° |
| 2026-05-08 18:25 | 65.82752 | -38.96032 | 10297 ft | 150 kts | 287° |
| 2026-05-08 18:26 | 65.83088 | -38.98436 | 10296 ft | 150 kts | 287° |
| 2026-05-08 18:26 | 65.83423 | -39.00839 | 10295 ft | 149 kts | 287° |
| 2026-05-08 18:26 | 65.83757 | -39.03239 | 10294 ft | 149 kts | 287° |
| 2026-05-08 18:26 | 65.84091 | -39.05641 | 10296 ft | 149 kts | 287° |
| 2026-05-08 18:27 | 65.84424 | -39.08040 | 10299 ft | 149 kts | 287° |
| 2026-05-08 18:27 | 65.84644 | -39.09628 | 10297 ft | 149 kts | 287° |
| 2026-05-08 18:27 | 65.85088 | -39.12838 | 10299 ft | 149 kts | 287° |
| 2026-05-08 18:27 | 65.85420 | -39.15238 | 10299 ft | 149 kts | 287° |
| 2026-05-08 18:28 | 65.85752 | -39.17648 | 10299 ft | 150 kts | 287° |
| 2026-05-08 18:28 | 65.86085 | -39.20058 | 10299 ft | 150 kts | 287° |
| 2026-05-08 18:28 | 65.86417 | -39.22469 | 10298 ft | 149 kts | 287° |
| 2026-05-08 18:28 | 65.86747 | -39.24874 | 10299 ft | 149 kts | 287° |
| 2026-05-08 18:29 | 65.87077 | -39.27277 | 10299 ft | 149 kts | 287° |
| 2026-05-08 18:29 | 65.87406 | -39.29679 | 10299 ft | 150 kts | 286° |
| 2026-05-08 18:29 | 65.87737 | -39.32100 | 10298 ft | 150 kts | 286° |
| 2026-05-08 18:29 | 65.88066 | -39.34504 | 10300 ft | 151 kts | 286° |
| 2026-05-08 18:30 | 65.88398 | -39.36941 | 10295 ft | 151 kts | 286° |
| 2026-05-08 18:30 | 65.88730 | -39.39374 | 10295 ft | 151 kts | 286° |
| 2026-05-08 18:30 | 65.89061 | -39.41809 | 10296 ft | 151 kts | 286° |
| 2026-05-08 18:30 | 65.89393 | -39.44247 | 10294 ft | 151 kts | 286° |
| 2026-05-08 18:31 | 65.89723 | -39.46682 | 10295 ft | 151 kts | 286° |
| 2026-05-08 18:31 | 65.90054 | -39.49123 | 10295 ft | 151 kts | 286° |
| 2026-05-08 18:31 | 65.90383 | -39.51555 | 10296 ft | 151 kts | 286° |
| 2026-05-08 18:31 | 65.90713 | -39.53996 | 10293 ft | 151 kts | 286° |
| 2026-05-08 18:32 | 65.91042 | -39.56436 | 10294 ft | 151 kts | 286° |
| 2026-05-08 18:32 | 65.91371 | -39.58875 | 10294 ft | 151 kts | 286° |
| 2026-05-08 18:32 | 65.91694 | -39.61279 | 10296 ft | 151 kts | 286° |
| 2026-05-08 18:32 | 65.92021 | -39.63713 | 10293 ft | 151 kts | 286° |
| 2026-05-08 18:33 | 65.92349 | -39.66154 | 10273 ft | 151 kts | 286° |
| 2026-05-08 18:33 | 65.92676 | -39.68599 | 10273 ft | 151 kts | 286° |
| 2026-05-08 18:33 | 65.93003 | -39.71038 | 10272 ft | 151 kts | 286° |
| 2026-05-08 18:33 | 65.93329 | -39.73480 | 10270 ft | 151 kts | 286° |
| 2026-05-08 18:34 | 65.93655 | -39.75923 | 10271 ft | 151 kts | 286° |
| 2026-05-08 18:34 | 65.93979 | -39.78361 | 10269 ft | 150 kts | 286° |
| 2026-05-08 18:34 | 65.94304 | -39.80799 | 10270 ft | 150 kts | 286° |
| 2026-05-08 18:34 | 65.94628 | -39.83237 | 10269 ft | 150 kts | 286° |
| 2026-05-08 18:35 | 65.94951 | -39.85677 | 10275 ft | 150 kts | 286° |
| 2026-05-08 18:35 | 65.95270 | -39.88085 | 10274 ft | 151 kts | 286° |
| 2026-05-08 18:35 | 65.95595 | -39.90543 | 10275 ft | 151 kts | 286° |
| 2026-05-08 18:35 | 65.95919 | -39.92993 | 10272 ft | 151 kts | 286° |
| 2026-05-08 18:36 | 65.96241 | -39.95441 | 10272 ft | 151 kts | 285° |
| 2026-05-08 18:36 | 65.96564 | -39.97890 | 10274 ft | 151 kts | 286° |
| 2026-05-08 18:36 | 65.96886 | -40.00345 | 10273 ft | 151 kts | 285° |
| 2026-05-08 18:36 | 65.97208 | -40.02795 | 10256 ft | 151 kts | 285° |
| 2026-05-08 18:37 | 65.97529 | -40.05252 | 10221 ft | 151 kts | 285° |
| 2026-05-08 18:37 | 65.97851 | -40.07713 | 10219 ft | 152 kts | 285° |
| 2026-05-08 18:37 | 65.98173 | -40.10180 | 10221 ft | 152 kts | 285° |
| 2026-05-08 18:37 | 65.98491 | -40.12618 | 10222 ft | 152 kts | 285° |
| 2026-05-08 18:38 | 65.98812 | -40.15087 | 10221 ft | 152 kts | 285° |
| 2026-05-08 18:38 | 65.99133 | -40.17559 | 10219 ft | 152 kts | 285° |
| 2026-05-08 18:38 | 65.99454 | -40.20031 | 10218 ft | 152 kts | 285° |
| 2026-05-08 18:38 | 65.99774 | -40.22500 | 10220 ft | 152 kts | 285° |
| 2026-05-08 18:39 | 66.00095 | -40.24984 | 10219 ft | 152 kts | 285° |
| 2026-05-08 18:39 | 66.00415 | -40.27461 | 10219 ft | 152 kts | 285° |
| 2026-05-08 18:39 | 66.00734 | -40.29934 | 10222 ft | 152 kts | 285° |
| 2026-05-08 18:39 | 66.01052 | -40.32405 | 10220 ft | 152 kts | 285° |
| 2026-05-08 18:40 | 66.01371 | -40.34883 | 10212 ft | 152 kts | 285° |
| 2026-05-08 18:40 | 66.01685 | -40.37330 | 10212 ft | 152 kts | 285° |
| 2026-05-08 18:40 | 66.02002 | -40.39802 | 10213 ft | 152 kts | 285° |
| 2026-05-08 18:40 | 66.02319 | -40.42276 | 10170 ft | 152 kts | 285° |
| 2026-05-08 18:41 | 66.02635 | -40.44748 | 10167 ft | 152 kts | 285° |
| 2026-05-08 18:41 | 66.02951 | -40.47220 | 10167 ft | 151 kts | 285° |
| 2026-05-08 18:41 | 66.03265 | -40.49691 | 10167 ft | 151 kts | 285° |
| 2026-05-08 18:41 | 66.03580 | -40.52166 | 10167 ft | 151 kts | 285° |
| 2026-05-08 18:42 | 66.03895 | -40.54641 | 10168 ft | 152 kts | 285° |
| 2026-05-08 18:42 | 66.04209 | -40.57118 | 10169 ft | 152 kts | 285° |
| 2026-05-08 18:42 | 66.04524 | -40.59600 | 10169 ft | 152 kts | 285° |
| 2026-05-08 18:42 | 66.04838 | -40.62084 | 10171 ft | 152 kts | 285° |
| 2026-05-08 18:43 | 66.05147 | -40.64531 | 10169 ft | 152 kts | 285° |
| 2026-05-08 18:43 | 66.05460 | -40.67014 | 10168 ft | 152 kts | 285° |
| 2026-05-08 18:43 | 66.05772 | -40.69494 | 10167 ft | 151 kts | 285° |
| 2026-05-08 18:43 | 66.06084 | -40.71973 | 10170 ft | 151 kts | 285° |
| 2026-05-08 18:44 | 66.06396 | -40.74454 | 10170 ft | 151 kts | 285° |
| 2026-05-08 18:44 | 66.06705 | -40.76927 | 10167 ft | 151 kts | 285° |
| 2026-05-08 18:44 | 66.07016 | -40.79406 | 10170 ft | 151 kts | 285° |
| 2026-05-08 18:44 | 66.07326 | -40.81891 | 10167 ft | 152 kts | 285° |
| 2026-05-08 18:45 | 66.07636 | -40.84376 | 10169 ft | 152 kts | 285° |
| 2026-05-08 18:45 | 66.07946 | -40.86861 | 10167 ft | 152 kts | 285° |
| 2026-05-08 18:45 | 66.08256 | -40.89351 | 10169 ft | 152 kts | 285° |
| 2026-05-08 18:45 | 66.08560 | -40.91805 | 10168 ft | 152 kts | 285° |
| 2026-05-08 18:46 | 66.08869 | -40.94293 | 10170 ft | 152 kts | 285° |
| 2026-05-08 18:46 | 66.09177 | -40.96778 | 10171 ft | 152 kts | 285° |
| 2026-05-08 18:46 | 66.09484 | -40.99264 | 10157 ft | 152 kts | 285° |
| 2026-05-08 18:46 | 66.09792 | -41.01756 | 10159 ft | 152 kts | 285° |
| 2026-05-08 18:47 | 66.10099 | -41.04248 | 10161 ft | 152 kts | 285° |
| 2026-05-08 18:47 | 66.10406 | -41.06750 | 10160 ft | 152 kts | 285° |
| 2026-05-08 18:47 | 66.10713 | -41.09246 | 10162 ft | 152 kts | 285° |
| 2026-05-08 18:47 | 66.11020 | -41.11748 | 10161 ft | 152 kts | 284° |
| 2026-05-08 18:48 | 66.11325 | -41.14240 | 10166 ft | 152 kts | 285° |
| 2026-05-08 18:48 | 66.11626 | -41.16702 | 10151 ft | 152 kts | 285° |
| 2026-05-08 18:48 | 66.11930 | -41.19191 | 10145 ft | 151 kts | 285° |
| 2026-05-08 18:48 | 66.12235 | -41.21685 | 10146 ft | 151 kts | 285° |
| 2026-05-08 18:49 | 66.12538 | -41.24180 | 10145 ft | 152 kts | 285° |
| 2026-05-08 18:49 | 66.12841 | -41.26673 | 10146 ft | 151 kts | 285° |
| 2026-05-08 18:49 | 66.13143 | -41.29163 | 10145 ft | 151 kts | 284° |
| 2026-05-08 18:49 | 66.13445 | -41.31651 | 10145 ft | 151 kts | 285° |
| 2026-05-08 18:50 | 66.13745 | -41.34136 | 10149 ft | 151 kts | 284° |
| 2026-05-08 18:50 | 66.14046 | -41.36627 | 10148 ft | 151 kts | 284° |
| 2026-05-08 18:50 | 66.14347 | -41.39119 | 10149 ft | 151 kts | 284° |
| 2026-05-08 18:50 | 66.14643 | -41.41580 | 10151 ft | 151 kts | 284° |
| 2026-05-08 18:51 | 66.14942 | -41.44068 | 10148 ft | 151 kts | 284° |
| 2026-05-08 18:51 | 66.15241 | -41.46560 | 10149 ft | 151 kts | 284° |
| 2026-05-08 18:51 | 66.15541 | -41.49062 | 10150 ft | 151 kts | 284° |
| 2026-05-08 18:51 | 66.15839 | -41.51556 | 10149 ft | 151 kts | 284° |
| 2026-05-08 18:52 | 66.16137 | -41.54049 | 10145 ft | 151 kts | 284° |
| 2026-05-08 18:52 | 66.16435 | -41.56547 | 10135 ft | 151 kts | 284° |
| 2026-05-08 18:52 | 66.16733 | -41.59045 | 10135 ft | 151 kts | 284° |
| 2026-05-08 18:52 | 66.17030 | -41.61544 | 10135 ft | 151 kts | 284° |
| 2026-05-08 18:53 | 66.17326 | -41.64040 | 10125 ft | 151 kts | 283° |
| 2026-05-08 18:53 | 66.17622 | -41.66540 | 10125 ft | 151 kts | 283° |
| 2026-05-08 18:53 | 66.17918 | -41.69039 | 10125 ft | 151 kts | 283° |
| 2026-05-08 18:53 | 66.18213 | -41.71539 | 10126 ft | 151 kts | 283° |
| 2026-05-08 18:54 | 66.18508 | -41.74040 | 10122 ft | 151 kts | 283° |
| 2026-05-08 18:54 | 66.18799 | -41.76509 | 10123 ft | 151 kts | 283° |
| 2026-05-08 18:54 | 66.19093 | -41.79010 | 10124 ft | 151 kts | 283° |
| 2026-05-08 18:54 | 66.19387 | -41.81514 | 10124 ft | 152 kts | 283° |
| 2026-05-08 18:55 | 66.19975 | -41.86536 | 10127 ft | 152 kts | 283° |
| 2026-05-08 18:55 | 66.20268 | -41.89043 | 10125 ft | 151 kts | 283° |
| 2026-05-08 18:55 | 66.20560 | -41.91547 | 10129 ft | 151 kts | 283° |
| 2026-05-08 18:56 | 66.20851 | -41.94051 | 10119 ft | 151 kts | 283° |
| 2026-05-08 18:56 | 66.21143 | -41.96560 | 10117 ft | 151 kts | 283° |
| 2026-05-08 18:56 | 66.21335 | -41.98216 | 10117 ft | 151 kts | 283° |
| 2026-05-08 18:56 | 66.21626 | -42.00730 | 10119 ft | 152 kts | 283° |
| 2026-05-08 18:57 | 66.21918 | -42.03247 | 10119 ft | 152 kts | 283° |
| 2026-05-08 18:57 | 66.22209 | -42.05768 | 10119 ft | 152 kts | 283° |
| 2026-05-08 18:57 | 66.22594 | -42.09107 | 10119 ft | 152 kts | 283° |
| 2026-05-08 18:57 | 66.22787 | -42.10779 | 10117 ft | 152 kts | 283° |
| 2026-05-08 18:58 | 66.23076 | -42.13296 | 10129 ft | 152 kts | 283° |
| 2026-05-08 18:58 | 66.23365 | -42.15809 | 10129 ft | 152 kts | 282° |
| 2026-05-08 18:58 | 66.23653 | -42.18331 | 10129 ft | 152 kts | 282° |
| 2026-05-08 18:58 | 66.23942 | -42.20853 | 10130 ft | 152 kts | 282° |
| 2026-05-08 18:59 | 66.24230 | -42.23374 | 10130 ft | 152 kts | 282° |
| 2026-05-08 18:59 | 66.24518 | -42.25899 | 10130 ft | 152 kts | 282° |
| 2026-05-08 18:59 | 66.24807 | -42.28434 | 10133 ft | 152 kts | 282° |
| 2026-05-08 18:59 | 66.25094 | -42.30961 | 10130 ft | 152 kts | 282° |
| 2026-05-08 19:00 | 66.25381 | -42.33489 | 10115 ft | 152 kts | 282° |
| 2026-05-08 19:00 | 66.25663 | -42.35981 | 10117 ft | 152 kts | 282° |
| 2026-05-08 19:00 | 66.25949 | -42.38505 | 10117 ft | 152 kts | 282° |
| 2026-05-08 19:00 | 66.26234 | -42.41031 | 10118 ft | 152 kts | 282° |
| 2026-05-08 19:01 | 66.26518 | -42.43555 | 10116 ft | 152 kts | 282° |
| 2026-05-08 19:01 | 66.26802 | -42.46078 | 10115 ft | 152 kts | 282° |
| 2026-05-08 19:01 | 66.27086 | -42.48601 | 10117 ft | 152 kts | 282° |
| 2026-05-08 19:01 | 66.27368 | -42.51121 | 10116 ft | 152 kts | 282° |
| 2026-05-08 19:02 | 66.27651 | -42.53646 | 10117 ft | 152 kts | 282° |
| 2026-05-08 19:02 | 66.27933 | -42.56167 | 10117 ft | 152 kts | 282° |
| 2026-05-08 19:02 | 66.28215 | -42.58690 | 10117 ft | 152 kts | 282° |
| 2026-05-08 19:02 | 66.28496 | -42.61218 | 10120 ft | 152 kts | 282° |
| 2026-05-08 19:03 | 66.28778 | -42.63752 | 10116 ft | 152 kts | 282° |
| 2026-05-08 19:03 | 66.29060 | -42.66290 | 10117 ft | 152 kts | 282° |
| 2026-05-08 19:03 | 66.29341 | -42.68828 | 10116 ft | 152 kts | 282° |
| 2026-05-08 19:03 | 66.29621 | -42.71355 | 10103 ft | 152 kts | 282° |
| 2026-05-08 19:04 | 66.29901 | -42.73886 | 10102 ft | 152 kts | 282° |
| 2026-05-08 19:04 | 66.30179 | -42.76412 | 10105 ft | 152 kts | 282° |
| 2026-05-08 19:04 | 66.30455 | -42.78914 | 10105 ft | 152 kts | 282° |
| 2026-05-08 19:04 | 66.30733 | -42.81448 | 10103 ft | 152 kts | 282° |
| 2026-05-08 19:05 | 66.31011 | -42.83983 | 10103 ft | 152 kts | 282° |
| 2026-05-08 19:05 | 66.31289 | -42.86521 | 10104 ft | 152 kts | 282° |
| 2026-05-08 19:05 | 66.31567 | -42.89064 | 10102 ft | 152 kts | 282° |
| 2026-05-08 19:05 | 66.31845 | -42.91604 | 10102 ft | 152 kts | 282° |
| 2026-05-08 19:06 | 66.32122 | -42.94146 | 10095 ft | 152 kts | 282° |
| 2026-05-08 19:06 | 66.32397 | -42.96679 | 10096 ft | 152 kts | 282° |
| 2026-05-08 19:06 | 66.32673 | -42.99213 | 10095 ft | 152 kts | 282° |
| 2026-05-08 19:06 | 66.32944 | -43.01720 | 10095 ft | 152 kts | 282° |
| 2026-05-08 19:07 | 66.33219 | -43.04261 | 10093 ft | 152 kts | 282° |
| 2026-05-08 19:07 | 66.33494 | -43.06802 | 10093 ft | 152 kts | 282° |
| 2026-05-08 19:07 | 66.33769 | -43.09347 | 10093 ft | 152 kts | 281° |
| 2026-05-08 19:07 | 66.34044 | -43.11906 | 10076 ft | 153 kts | 281° |
| 2026-05-08 19:08 | 66.34317 | -43.14448 | 10077 ft | 152 kts | 281° |
| 2026-05-08 19:08 | 66.34589 | -43.16982 | 10077 ft | 151 kts | 281° |
| 2026-05-08 19:08 | 66.34860 | -43.19511 | 10078 ft | 151 kts | 281° |
| 2026-05-08 19:08 | 66.35131 | -43.22041 | 10078 ft | 151 kts | 281° |
| 2026-05-08 19:09 | 66.35400 | -43.24567 | 10074 ft | 151 kts | 281° |
| 2026-05-08 19:09 | 66.35669 | -43.27090 | 10075 ft | 151 kts | 280° |
| 2026-05-08 19:09 | 66.35934 | -43.29579 | 10075 ft | 150 kts | 280° |
| 2026-05-08 19:09 | 66.36201 | -43.32097 | 10075 ft | 150 kts | 280° |
| 2026-05-08 19:10 | 66.36468 | -43.34608 | 10069 ft | 149 kts | 280° |
| 2026-05-08 19:10 | 66.36733 | -43.37112 | 10069 ft | 149 kts | 280° |
| 2026-05-08 19:10 | 66.36998 | -43.39620 | 10069 ft | 149 kts | 280° |
| 2026-05-08 19:10 | 66.37261 | -43.42117 | 10069 ft | 149 kts | 280° |
| 2026-05-08 19:11 | 66.37524 | -43.44615 | 10072 ft | 149 kts | 280° |
| 2026-05-08 19:11 | 66.37787 | -43.47123 | 10072 ft | 149 kts | 280° |
| 2026-05-08 19:11 | 66.38051 | -43.49638 | 10062 ft | 150 kts | 280° |
| 2026-05-08 19:11 | 66.38311 | -43.52121 | 10061 ft | 150 kts | 280° |
| 2026-05-08 19:12 | 66.38577 | -43.54665 | 10059 ft | 150 kts | 280° |
| 2026-05-08 19:12 | 66.38839 | -43.57176 | 10059 ft | 150 kts | 280° |
| 2026-05-08 19:12 | 66.39098 | -43.59661 | 10048 ft | 150 kts | 280° |
| 2026-05-08 19:12 | 66.39360 | -43.62181 | 10048 ft | 150 kts | 280° |
| 2026-05-08 19:13 | 66.39622 | -43.64702 | 10048 ft | 150 kts | 280° |
| 2026-05-08 19:13 | 66.39884 | -43.67228 | 10047 ft | 150 kts | 280° |
| 2026-05-08 19:13 | 66.40145 | -43.69753 | 10048 ft | 150 kts | 280° |
| 2026-05-08 19:13 | 66.40405 | -43.72273 | 10047 ft | 150 kts | 280° |
| 2026-05-08 19:14 | 66.40665 | -43.74793 | 10044 ft | 150 kts | 280° |
| 2026-05-08 19:14 | 66.40924 | -43.77307 | 10044 ft | 149 kts | 280° |
| 2026-05-08 19:14 | 66.41179 | -43.79789 | 10045 ft | 150 kts | 280° |
| 2026-05-08 19:14 | 66.41441 | -43.82346 | 10045 ft | 150 kts | 280° |
| 2026-05-08 19:15 | 66.41698 | -43.84854 | 10045 ft | 151 kts | 279° |
| 2026-05-08 19:15 | 66.41958 | -43.87396 | 10039 ft | 151 kts | 279° |
| 2026-05-08 19:15 | 66.42216 | -43.89929 | 10038 ft | 150 kts | 279° |
| 2026-05-08 19:15 | 66.42473 | -43.92456 | 10038 ft | 150 kts | 280° |
| 2026-05-08 19:16 | 66.42729 | -43.94973 | 10038 ft | 149 kts | 280° |
| 2026-05-08 19:16 | 66.42984 | -43.97487 | 10039 ft | 149 kts | 280° |
| 2026-05-08 19:16 | 66.43236 | -43.99974 | 10040 ft | 150 kts | 280° |
| 2026-05-08 19:16 | 66.43492 | -44.02506 | 10040 ft | 150 kts | 280° |
| 2026-05-08 19:17 | 66.43748 | -44.05044 | 10043 ft | 150 kts | 279° |
| 2026-05-08 19:17 | 66.44004 | -44.07582 | 10050 ft | 151 kts | 279° |
| 2026-05-08 19:17 | 66.44259 | -44.10122 | 10046 ft | 150 kts | 279° |
| 2026-05-08 19:17 | 66.44514 | -44.12657 | 10046 ft | 150 kts | 279° |
| 2026-05-08 19:18 | 66.44767 | -44.15184 | 10047 ft | 150 kts | 279° |
| 2026-05-08 19:18 | 66.45020 | -44.17722 | 10047 ft | 150 kts | 279° |
| 2026-05-08 19:18 | 66.45274 | -44.20264 | 10047 ft | 151 kts | 279° |
| 2026-05-08 19:18 | 66.45528 | -44.22810 | 10048 ft | 151 kts | 279° |
| 2026-05-08 19:19 | 66.45781 | -44.25353 | 10034 ft | 151 kts | 279° |
| 2026-05-08 19:19 | 66.46034 | -44.27910 | 10028 ft | 151 kts | 279° |
| 2026-05-08 19:19 | 66.46283 | -44.30422 | 10028 ft | 151 kts | 279° |
| 2026-05-08 19:19 | 66.46535 | -44.32965 | 10028 ft | 150 kts | 279° |
| 2026-05-08 19:20 | 66.46785 | -44.35504 | 10028 ft | 150 kts | 279° |
| 2026-05-08 19:20 | 66.46870 | -44.36362 | 10028 ft | 150 kts | 279° |
| 2026-05-08 19:20 | 66.47286 | -44.40587 | 10028 ft | 150 kts | 279° |
| 2026-05-08 19:20 | 66.47535 | -44.43127 | 10029 ft | 151 kts | 279° |
| 2026-05-08 19:21 | 66.47785 | -44.45677 | 10028 ft | 151 kts | 279° |
| 2026-05-08 19:21 | 66.48035 | -44.48232 | 10028 ft | 151 kts | 279° |
| 2026-05-08 19:21 | 66.48285 | -44.50789 | 10028 ft | 151 kts | 279° |
| 2026-05-08 19:21 | 66.48531 | -44.53321 | 10029 ft | 151 kts | 279° |
| 2026-05-08 19:22 | 66.48779 | -44.55877 | 10027 ft | 151 kts | 279° |
| 2026-05-08 19:22 | 66.49030 | -44.58460 | 10028 ft | 151 kts | 279° |
| 2026-05-08 19:22 | 66.49278 | -44.61010 | 10028 ft | 151 kts | 279° |
| 2026-05-08 19:22 | 66.49521 | -44.63528 | 10029 ft | 151 kts | 279° |
| 2026-05-08 19:23 | 66.49768 | -44.66084 | 10023 ft | 151 kts | 279° |
| 2026-05-08 19:23 | 66.50014 | -44.68641 | 10023 ft | 151 kts | 279° |
| 2026-05-08 19:23 | 66.50260 | -44.71199 | 10024 ft | 151 kts | 278° |
| 2026-05-08 19:23 | 66.50506 | -44.73765 | 10025 ft | 152 kts | 278° |
| 2026-05-08 19:24 | 66.50753 | -44.76341 | 10018 ft | 152 kts | 278° |
| 2026-05-08 19:24 | 66.51000 | -44.78921 | 10017 ft | 152 kts | 278° |
| 2026-05-08 19:24 | 66.51246 | -44.81493 | 10017 ft | 151 kts | 278° |
| 2026-05-08 19:24 | 66.51490 | -44.84065 | 10017 ft | 151 kts | 278° |
| 2026-05-08 19:25 | 66.51734 | -44.86627 | 10022 ft | 151 kts | 278° |
| 2026-05-08 19:25 | 66.51977 | -44.89192 | 10022 ft | 151 kts | 278° |
| 2026-05-08 19:25 | 66.52220 | -44.91749 | 10017 ft | 151 kts | 278° |
| 2026-05-08 19:25 | 66.52463 | -44.94334 | 10011 ft | 153 kts | 277° |
| 2026-05-08 19:26 | 66.52706 | -44.96909 | 10011 ft | 154 kts | 277° |
| 2026-05-08 19:26 | 66.52952 | -44.99524 | 10011 ft | 154 kts | 277° |
| 2026-05-08 19:26 | 66.53199 | -45.02143 | 10011 ft | 154 kts | 277° |
| 2026-05-08 19:26 | 66.53445 | -45.04766 | 10010 ft | 154 kts | 277° |
| 2026-05-08 19:27 | 66.53690 | -45.07389 | 10001 ft | 154 kts | 276° |
| 2026-05-08 19:27 | 66.53936 | -45.10016 | 9986 ft | 155 kts | 276° |
| 2026-05-08 19:27 | 66.54181 | -45.12646 | 9914 ft | 158 kts | 277° |
| 2026-05-08 19:27 | 66.54435 | -45.15406 | 9750 ft | 163 kts | 277° |
| 2026-05-08 19:28 | 66.54694 | -45.18174 | 9695 ft | 162 kts | 277° |
| 2026-05-08 19:28 | 66.54950 | -45.20925 | 9622 ft | 162 kts | 277° |
| 2026-05-08 19:28 | 66.55201 | -45.23648 | 9547 ft | 162 kts | 277° |
| 2026-05-08 19:28 | 66.55459 | -45.26443 | 9470 ft | 163 kts | 277° |
| 2026-05-08 19:29 | 66.55710 | -45.29175 | 9386 ft | 163 kts | 277° |
| 2026-05-08 19:29 | 66.55966 | -45.31951 | 9307 ft | 163 kts | 277° |
| 2026-05-08 19:29 | 66.56220 | -45.34725 | 9231 ft | 163 kts | 277° |
| 2026-05-08 19:29 | 66.56475 | -45.37510 | 9166 ft | 163 kts | 277° |
| 2026-05-08 19:30 | 66.56729 | -45.40292 | 9105 ft | 163 kts | 277° |
| 2026-05-08 19:30 | 66.56981 | -45.43056 | 9059 ft | 162 kts | 277° |
| 2026-05-08 19:30 | 66.57232 | -45.45825 | 8997 ft | 162 kts | 277° |
| 2026-05-08 19:30 | 66.57481 | -45.48556 | 8998 ft | 159 kts | 277° |
| 2026-05-08 19:31 | 66.57725 | -45.51245 | 9002 ft | 157 kts | 277° |
| 2026-05-08 19:31 | 66.57965 | -45.53917 | 8999 ft | 156 kts | 277° |
| 2026-05-08 19:31 | 66.58204 | -45.56566 | 8995 ft | 155 kts | 277° |
| 2026-05-08 19:31 | 66.58441 | -45.59197 | 8983 ft | 153 kts | 277° |
| 2026-05-08 19:32 | 66.58674 | -45.61800 | 8979 ft | 153 kts | 276° |
| 2026-05-08 19:32 | 66.58904 | -45.64371 | 8985 ft | 152 kts | 276° |
| 2026-05-08 19:32 | 66.59135 | -45.66960 | 8982 ft | 152 kts | 276° |
| 2026-05-08 19:32 | 66.59367 | -45.69559 | 8977 ft | 152 kts | 276° |
| 2026-05-08 19:33 | 66.59598 | -45.72154 | 8982 ft | 152 kts | 276° |
| 2026-05-08 19:33 | 66.59828 | -45.74752 | 8982 ft | 152 kts | 276° |
| 2026-05-08 19:33 | 66.60059 | -45.77354 | 8981 ft | 152 kts | 276° |
| 2026-05-08 19:33 | 66.60289 | -45.79955 | 8981 ft | 152 kts | 276° |
| 2026-05-08 19:34 | 66.60520 | -45.82561 | 8985 ft | 153 kts | 276° |
| 2026-05-08 19:34 | 66.60750 | -45.85180 | 8973 ft | 154 kts | 276° |
| 2026-05-08 19:34 | 66.60981 | -45.87811 | 8972 ft | 154 kts | 276° |
| 2026-05-08 19:34 | 66.61214 | -45.90455 | 8973 ft | 155 kts | 276° |
| 2026-05-08 19:35 | 66.61446 | -45.93105 | 8972 ft | 155 kts | 276° |
| 2026-05-08 19:35 | 66.61674 | -45.95720 | 8970 ft | 154 kts | 276° |
| 2026-05-08 19:35 | 66.61907 | -45.98388 | 8971 ft | 154 kts | 276° |
| 2026-05-08 19:35 | 66.62134 | -46.00991 | 8973 ft | 154 kts | 276° |
| 2026-05-08 19:36 | 66.62363 | -46.03637 | 8979 ft | 155 kts | 276° |
| 2026-05-08 19:36 | 66.62594 | -46.06299 | 8978 ft | 157 kts | 276° |
| 2026-05-08 19:36 | 66.62827 | -46.08992 | 8980 ft | 157 kts | 276° |
| 2026-05-08 19:36 | 66.63060 | -46.11692 | 8978 ft | 158 kts | 276° |
| 2026-05-08 19:37 | 66.63292 | -46.14383 | 8978 ft | 157 kts | 276° |
| 2026-05-08 19:37 | 66.63522 | -46.17066 | 8978 ft | 156 kts | 276° |
| 2026-05-08 19:37 | 66.63752 | -46.19742 | 8979 ft | 156 kts | 276° |
| 2026-05-08 19:37 | 66.63980 | -46.22414 | 8981 ft | 156 kts | 276° |
| 2026-05-08 19:38 | 66.64209 | -46.25095 | 8970 ft | 156 kts | 276° |
| 2026-05-08 19:38 | 66.64438 | -46.27786 | 8964 ft | 157 kts | 276° |
| 2026-05-08 19:38 | 66.64667 | -46.30484 | 8963 ft | 158 kts | 276° |
| 2026-05-08 19:38 | 66.64894 | -46.33160 | 8961 ft | 158 kts | 276° |
| 2026-05-08 19:39 | 66.65123 | -46.35864 | 8963 ft | 157 kts | 276° |
| 2026-05-08 19:39 | 66.65351 | -46.38565 | 8963 ft | 157 kts | 276° |
| 2026-05-08 19:39 | 66.65578 | -46.41254 | 8963 ft | 157 kts | 276° |
| 2026-05-08 19:39 | 66.65803 | -46.43938 | 8964 ft | 156 kts | 276° |
| 2026-05-08 19:40 | 66.66028 | -46.46616 | 8963 ft | 156 kts | 276° |
| 2026-05-08 19:40 | 66.66252 | -46.49300 | 8964 ft | 156 kts | 276° |
| 2026-05-08 19:40 | 66.66476 | -46.51987 | 8963 ft | 156 kts | 276° |
| 2026-05-08 19:40 | 66.66701 | -46.54679 | 8966 ft | 157 kts | 276° |
| 2026-05-08 19:41 | 66.66922 | -46.57345 | 8963 ft | 157 kts | 276° |
| 2026-05-08 19:41 | 66.67147 | -46.60052 | 8974 ft | 157 kts | 275° |
| 2026-05-08 19:41 | 66.67372 | -46.62773 | 8965 ft | 159 kts | 275° |
| 2026-05-08 19:41 | 66.67597 | -46.65511 | 8961 ft | 160 kts | 275° |
| 2026-05-08 19:42 | 66.67824 | -46.68254 | 8957 ft | 159 kts | 275° |
| 2026-05-08 19:42 | 66.68049 | -46.70998 | 8958 ft | 159 kts | 275° |
| 2026-05-08 19:42 | 66.68274 | -46.73736 | 8958 ft | 159 kts | 275° |
| 2026-05-08 19:42 | 66.68498 | -46.76479 | 8958 ft | 160 kts | 275° |
| 2026-05-08 19:43 | 66.68647 | -46.78298 | 8958 ft | 160 kts | 275° |
| 2026-05-08 19:43 | 66.68946 | -46.81975 | 8958 ft | 160 kts | 275° |
| 2026-05-08 19:43 | 66.69167 | -46.84695 | 8958 ft | 160 kts | 275° |
| 2026-05-08 19:43 | 66.69390 | -46.87445 | 8957 ft | 160 kts | 275° |
| 2026-05-08 19:44 | 66.69612 | -46.90198 | 8959 ft | 160 kts | 275° |
| 2026-05-08 19:44 | 66.69835 | -46.92954 | 8959 ft | 159 kts | 275° |
| 2026-05-08 19:44 | 66.70056 | -46.95695 | 8951 ft | 159 kts | 275° |
| 2026-05-08 19:44 | 66.70276 | -46.98437 | 8952 ft | 159 kts | 275° |
| 2026-05-08 19:45 | 66.70421 | -47.00255 | 8956 ft | 160 kts | 275° |
| 2026-05-08 19:45 | 66.70642 | -47.03008 | 8956 ft | 160 kts | 275° |
| 2026-05-08 19:45 | 66.70935 | -47.06682 | 8945 ft | 161 kts | 274° |
| 2026-05-08 19:45 | 66.71156 | -47.09458 | 8947 ft | 161 kts | 274° |
| 2026-05-08 19:46 | 66.71305 | -47.11336 | 8952 ft | 161 kts | 273° |
| 2026-05-08 19:46 | 66.71525 | -47.14112 | 8953 ft | 161 kts | 273° |
| 2026-05-08 19:46 | 66.71963 | -47.19664 | 8954 ft | 162 kts | 274° |
| 2026-05-08 19:47 | 66.72183 | -47.22458 | 8948 ft | 162 kts | 273° |
| 2026-05-08 19:47 | 66.72402 | -47.25253 | 8948 ft | 162 kts | 273° |
| 2026-05-08 19:47 | 66.72621 | -47.28049 | 8949 ft | 162 kts | 273° |
| 2026-05-08 19:47 | 66.72840 | -47.30844 | 8950 ft | 162 kts | 273° |
| 2026-05-08 19:48 | 66.73057 | -47.33638 | 8952 ft | 162 kts | 273° |
| 2026-05-08 19:48 | 66.73274 | -47.36426 | 8952 ft | 162 kts | 273° |
| 2026-05-08 19:48 | 66.73491 | -47.39220 | 8952 ft | 162 kts | 273° |
| 2026-05-08 19:48 | 66.73707 | -47.42017 | 8952 ft | 162 kts | 273° |
| 2026-05-08 19:49 | 66.73923 | -47.44818 | 8952 ft | 163 kts | 273° |
| 2026-05-08 19:49 | 66.74139 | -47.47631 | 8944 ft | 163 kts | 273° |
| 2026-05-08 19:49 | 66.74356 | -47.50447 | 8942 ft | 163 kts | 273° |
| 2026-05-08 19:49 | 66.74571 | -47.53255 | 8943 ft | 163 kts | 273° |
| 2026-05-08 19:50 | 66.74785 | -47.56066 | 8941 ft | 163 kts | 273° |
| 2026-05-08 19:50 | 66.74999 | -47.58876 | 8943 ft | 162 kts | 273° |
| 2026-05-08 19:50 | 66.75213 | -47.61683 | 8943 ft | 162 kts | 273° |
| 2026-05-08 19:50 | 66.75423 | -47.64458 | 8934 ft | 162 kts | 273° |
| 2026-05-08 19:51 | 66.75636 | -47.67269 | 8932 ft | 163 kts | 273° |
| 2026-05-08 19:51 | 66.75848 | -47.70085 | 8933 ft | 162 kts | 273° |
| 2026-05-08 19:51 | 66.76059 | -47.72889 | 8931 ft | 162 kts | 273° |
| 2026-05-08 19:51 | 66.76270 | -47.75696 | 8932 ft | 162 kts | 273° |
| 2026-05-08 19:52 | 66.76480 | -47.78504 | 8938 ft | 162 kts | 273° |
| 2026-05-08 19:52 | 66.76690 | -47.81312 | 8935 ft | 162 kts | 273° |
| 2026-05-08 19:52 | 66.76898 | -47.84112 | 8937 ft | 162 kts | 273° |
| 2026-05-08 19:52 | 66.77107 | -47.86921 | 8928 ft | 162 kts | 272° |
| 2026-05-08 19:53 | 66.77315 | -47.89734 | 8926 ft | 162 kts | 272° |
| 2026-05-08 19:53 | 66.77523 | -47.92544 | 8925 ft | 162 kts | 272° |
| 2026-05-08 19:53 | 66.77727 | -47.95316 | 8927 ft | 162 kts | 272° |
| 2026-05-08 19:53 | 66.77934 | -47.98139 | 8929 ft | 163 kts | 273° |
| 2026-05-08 19:54 | 66.78141 | -48.00958 | 8926 ft | 163 kts | 273° |
| 2026-05-08 19:54 | 66.78348 | -48.03784 | 8926 ft | 163 kts | 273° |
| 2026-05-08 19:54 | 66.78554 | -48.06605 | 8947 ft | 163 kts | 272° |
| 2026-05-08 19:54 | 66.78761 | -48.09455 | 8927 ft | 165 kts | 272° |
| 2026-05-08 19:55 | 66.78969 | -48.12311 | 8924 ft | 164 kts | 272° |
| 2026-05-08 19:55 | 66.79175 | -48.15165 | 8924 ft | 164 kts | 272° |
| 2026-05-08 19:55 | 66.79379 | -48.17981 | 8925 ft | 164 kts | 272° |
| 2026-05-08 19:55 | 66.79584 | -48.20836 | 8924 ft | 164 kts | 272° |
| 2026-05-08 19:56 | 66.79789 | -48.23690 | 8928 ft | 165 kts | 272° |
| 2026-05-08 19:56 | 66.79994 | -48.26555 | 8922 ft | 165 kts | 272° |
| 2026-05-08 19:56 | 66.80199 | -48.29424 | 8922 ft | 165 kts | 272° |
| 2026-05-08 19:56 | 66.80403 | -48.32299 | 8916 ft | 167 kts | 272° |
| 2026-05-08 19:57 | 66.80610 | -48.35210 | 8914 ft | 168 kts | 272° |
| 2026-05-08 19:57 | 66.80818 | -48.38139 | 8913 ft | 169 kts | 272° |
| 2026-05-08 19:57 | 66.81025 | -48.41070 | 8913 ft | 169 kts | 272° |
| 2026-05-08 19:57 | 66.81232 | -48.44005 | 8913 ft | 169 kts | 272° |
| 2026-05-08 19:58 | 66.81438 | -48.46939 | 8916 ft | 169 kts | 272° |
| 2026-05-08 19:58 | 66.81644 | -48.49874 | 8917 ft | 169 kts | 272° |
| 2026-05-08 19:58 | 66.81849 | -48.52818 | 8917 ft | 169 kts | 272° |
| 2026-05-08 19:58 | 66.82052 | -48.55724 | 8916 ft | 170 kts | 272° |
| 2026-05-08 19:59 | 66.82257 | -48.58677 | 8916 ft | 169 kts | 272° |
| 2026-05-08 19:59 | 66.82461 | -48.61624 | 8916 ft | 169 kts | 272° |
| 2026-05-08 19:59 | 66.82665 | -48.64573 | 8915 ft | 169 kts | 272° |
| 2026-05-08 19:59 | 66.82868 | -48.67528 | 8908 ft | 169 kts | 272° |
| 2026-05-08 20:00 | 66.83070 | -48.70473 | 8907 ft | 169 kts | 272° |
| 2026-05-08 20:00 | 66.83270 | -48.73387 | 8907 ft | 169 kts | 272° |
| 2026-05-08 20:00 | 66.83470 | -48.76325 | 8907 ft | 169 kts | 271° |
| 2026-05-08 20:00 | 66.83671 | -48.79273 | 8908 ft | 169 kts | 271° |
| 2026-05-08 20:01 | 66.83871 | -48.82222 | 8907 ft | 169 kts | 271° |
| 2026-05-08 20:01 | 66.84071 | -48.85168 | 8907 ft | 169 kts | 271° |
| 2026-05-08 20:01 | 66.84269 | -48.88109 | 8907 ft | 169 kts | 271° |
| 2026-05-08 20:01 | 66.84467 | -48.91046 | 8909 ft | 169 kts | 271° |
| 2026-05-08 20:02 | 66.84665 | -48.93997 | 8909 ft | 169 kts | 271° |
| 2026-05-08 20:02 | 66.84862 | -48.96953 | 8908 ft | 170 kts | 271° |
| 2026-05-08 20:02 | 66.85057 | -48.99866 | 8897 ft | 169 kts | 271° |
| 2026-05-08 20:02 | 66.85253 | -49.02815 | 8897 ft | 169 kts | 271° |
| 2026-05-08 20:03 | 66.85449 | -49.05771 | 8897 ft | 169 kts | 271° |
| 2026-05-08 20:03 | 66.85644 | -49.08724 | 8881 ft | 170 kts | 271° |
| 2026-05-08 20:03 | 66.85839 | -49.11694 | 8876 ft | 170 kts | 271° |
| 2026-05-08 20:03 | 66.86034 | -49.14656 | 8876 ft | 170 kts | 271° |
| 2026-05-08 20:04 | 66.86229 | -49.17623 | 8876 ft | 170 kts | 271° |
| 2026-05-08 20:04 | 66.86423 | -49.20596 | 8876 ft | 170 kts | 271° |
| 2026-05-08 20:04 | 66.86617 | -49.23568 | 8876 ft | 170 kts | 271° |
| 2026-05-08 20:04 | 66.86810 | -49.26542 | 8876 ft | 170 kts | 271° |
| 2026-05-08 20:05 | 66.87000 | -49.29481 | 8879 ft | 171 kts | 271° |
| 2026-05-08 20:05 | 66.87192 | -49.32466 | 8877 ft | 171 kts | 271° |
| 2026-05-08 20:05 | 66.87384 | -49.35445 | 8878 ft | 171 kts | 271° |
| 2026-05-08 20:05 | 66.87575 | -49.38424 | 8877 ft | 171 kts | 271° |
| 2026-05-08 20:06 | 66.87766 | -49.41414 | 8877 ft | 170 kts | 271° |
| 2026-05-08 20:06 | 66.87956 | -49.44384 | 8876 ft | 170 kts | 271° |
| 2026-05-08 20:06 | 66.88144 | -49.47357 | 8876 ft | 170 kts | 271° |
| 2026-05-08 20:06 | 66.88333 | -49.50333 | 8860 ft | 170 kts | 271° |
| 2026-05-08 20:07 | 66.88521 | -49.53305 | 8859 ft | 170 kts | 271° |
| 2026-05-08 20:07 | 66.88708 | -49.56276 | 8859 ft | 170 kts | 271° |
| 2026-05-08 20:07 | 66.88894 | -49.59251 | 8859 ft | 170 kts | 271° |
| 2026-05-08 20:07 | 66.89078 | -49.62194 | 8859 ft | 170 kts | 271° |
| 2026-05-08 20:08 | 66.89264 | -49.65169 | 8861 ft | 170 kts | 271° |
| 2026-05-08 20:08 | 66.89463 | -49.68149 | 8857 ft | 173 kts | 276° |
| 2026-05-08 20:08 | 66.89816 | -49.71094 | 8837 ft | 174 kts | 281° |
| 2026-05-08 20:08 | 66.90186 | -49.74029 | 8837 ft | 174 kts | 281° |
| 2026-05-08 20:09 | 66.90554 | -49.76960 | 8838 ft | 174 kts | 281° |
| 2026-05-08 20:09 | 66.90921 | -49.79901 | 8839 ft | 174 kts | 280° |
| 2026-05-08 20:09 | 66.91286 | -49.82838 | 8837 ft | 174 kts | 280° |
| 2026-05-08 20:09 | 66.91649 | -49.85767 | 8836 ft | 173 kts | 280° |
| 2026-05-08 20:10 | 66.92011 | -49.88686 | 8820 ft | 172 kts | 280° |
| 2026-05-08 20:10 | 66.92366 | -49.91556 | 8821 ft | 172 kts | 280° |
| 2026-05-08 20:10 | 66.92725 | -49.94470 | 8822 ft | 173 kts | 280° |
| 2026-05-08 20:10 | 66.93085 | -49.97393 | 8820 ft | 173 kts | 280° |
| 2026-05-08 20:11 | 66.93307 | -50.00323 | 8802 ft | 161 kts | 256° |
| 2026-05-08 20:11 | 66.93026 | -50.02995 | 8821 ft | 155 kts | 242° |
| 2026-05-08 20:11 | 66.92663 | -50.05604 | 8822 ft | 157 kts | 242° |
| 2026-05-08 20:11 | 66.92306 | -50.08281 | 8816 ft | 161 kts | 246° |
| 2026-05-08 20:12 | 66.91995 | -50.11022 | 8811 ft | 161 kts | 248° |
| 2026-05-08 20:12 | 66.91706 | -50.13769 | 8816 ft | 160 kts | 248° |
| 2026-05-08 20:12 | 66.91420 | -50.16504 | 8816 ft | 160 kts | 248° |
| 2026-05-08 20:12 | 66.91132 | -50.19241 | 8819 ft | 160 kts | 248° |
| 2026-05-08 20:13 | 66.90842 | -50.21993 | 8822 ft | 161 kts | 248° |
| 2026-05-08 20:13 | 66.90550 | -50.24764 | 8821 ft | 162 kts | 248° |
| 2026-05-08 20:13 | 66.90261 | -50.27505 | 8808 ft | 162 kts | 248° |
| 2026-05-08 20:13 | 66.89969 | -50.30265 | 8805 ft | 161 kts | 248° |
| 2026-05-08 20:14 | 66.89679 | -50.33013 | 8805 ft | 160 kts | 249° |
| 2026-05-08 20:14 | 66.89389 | -50.35754 | 8807 ft | 160 kts | 248° |
| 2026-05-08 20:14 | 66.89095 | -50.38500 | 8809 ft | 161 kts | 248° |
| 2026-05-08 20:14 | 66.88801 | -50.41254 | 8796 ft | 161 kts | 248° |
| 2026-05-08 20:15 | 66.88507 | -50.44010 | 8798 ft | 160 kts | 248° |
| 2026-05-08 20:15 | 66.88214 | -50.46747 | 8798 ft | 160 kts | 248° |
| 2026-05-08 20:15 | 66.87922 | -50.49476 | 8802 ft | 160 kts | 248° |
| 2026-05-08 20:15 | 66.87630 | -50.52186 | 8803 ft | 161 kts | 248° |
| 2026-05-08 20:16 | 66.87334 | -50.54948 | 8802 ft | 162 kts | 248° |
| 2026-05-08 20:16 | 66.87037 | -50.57704 | 8798 ft | 161 kts | 248° |
| 2026-05-08 20:16 | 66.86741 | -50.60442 | 8803 ft | 161 kts | 248° |
| 2026-05-08 20:16 | 66.86442 | -50.63191 | 8744 ft | 163 kts | 248° |
| 2026-05-08 20:17 | 66.86139 | -50.65991 | 8530 ft | 163 kts | 248° |
| 2026-05-08 20:17 | 66.85846 | -50.68728 | 8319 ft | 158 kts | 248° |
| 2026-05-08 20:17 | 66.85556 | -50.71393 | 8121 ft | 155 kts | 248° |
| 2026-05-08 20:17 | 66.85267 | -50.74030 | 7904 ft | 155 kts | 248° |
| 2026-05-08 20:18 | 66.84977 | -50.76678 | 7708 ft | 156 kts | 248° |
| 2026-05-08 20:18 | 66.84685 | -50.79346 | 7496 ft | 156 kts | 248° |
| 2026-05-08 20:18 | 66.84398 | -50.81975 | 7295 ft | 153 kts | 248° |
| 2026-05-08 20:18 | 66.84113 | -50.84572 | 7095 ft | 151 kts | 248° |
| 2026-05-08 20:19 | 66.83830 | -50.87141 | 6895 ft | 150 kts | 247° |
| 2026-05-08 20:19 | 66.83551 | -50.89673 | 6703 ft | 148 kts | 248° |
| 2026-05-08 20:19 | 66.83273 | -50.92195 | 6508 ft | 147 kts | 248° |
| 2026-05-08 20:19 | 66.82997 | -50.94694 | 6311 ft | 147 kts | 247° |
| 2026-05-08 20:20 | 66.82725 | -50.97150 | 6116 ft | 145 kts | 247° |
| 2026-05-08 20:20 | 66.82455 | -50.99592 | 5922 ft | 143 kts | 246° |
| 2026-05-08 20:20 | 66.82184 | -51.02027 | 5734 ft | 143 kts | 247° |
| 2026-05-08 20:20 | 66.81912 | -51.04479 | 5526 ft | 145 kts | 247° |
| 2026-05-08 20:21 | 66.81638 | -51.06927 | 5347 ft | 143 kts | 247° |
| 2026-05-08 20:21 | 66.81476 | -51.09423 | 5154 ft | 146 kts | 263° |
| 2026-05-08 20:21 | 66.81692 | -51.12007 | 4993 ft | 155 kts | 287° |
| 2026-05-08 20:21 | 66.82299 | -51.14201 | 4990 ft | 152 kts | 311° |
| 2026-05-08 20:22 | 66.83168 | -51.15682 | 4980 ft | 148 kts | 326° |
| 2026-05-08 20:22 | 66.84091 | -51.16977 | 4751 ft | 155 kts | 326° |
| 2026-05-08 20:22 | 66.85046 | -51.18306 | 4499 ft | 158 kts | 327° |
| 2026-05-08 20:22 | 66.85690 | -51.19203 | 4307 ft | 161 kts | 327° |
| 2026-05-08 20:23 | 66.86946 | -51.20952 | 4131 ft | 151 kts | 326° |
| 2026-05-08 20:23 | 66.87849 | -51.22217 | 4001 ft | 146 kts | 327° |
| 2026-05-08 20:23 | 66.88800 | -51.23006 | 3874 ft | 144 kts | 356° |
| 2026-05-08 20:23 | 66.89758 | -51.22583 | 3789 ft | 136 kts | 28° |
| 2026-05-08 20:24 | 66.90471 | -51.21229 | 3785 ft | 122 kts | 57° |
| 2026-05-08 20:24 | 66.90901 | -51.19467 | 3780 ft | 114 kts | 69° |
| 2026-05-08 20:24 | 66.91279 | -51.17745 | 3787 ft | 109 kts | 69° |
| 2026-05-08 20:24 | 66.91647 | -51.16043 | 3789 ft | 110 kts | 70° |
| 2026-05-08 20:25 | 66.92016 | -51.14323 | 3791 ft | 111 kts | 70° |
| 2026-05-08 20:25 | 66.92397 | -51.12547 | 3789 ft | 118 kts | 69° |
| 2026-05-08 20:25 | 66.92800 | -51.10664 | 3751 ft | 129 kts | 68° |
| 2026-05-08 20:25 | 66.93254 | -51.08534 | 3568 ft | 143 kts | 68° |
| 2026-05-08 20:26 | 66.93743 | -51.06253 | 3336 ft | 150 kts | 68° |
| 2026-05-08 20:26 | 66.94250 | -51.03894 | 3100 ft | 153 kts | 68° |
| 2026-05-08 20:26 | 66.94762 | -51.01513 | 2856 ft | 151 kts | 66° |
| 2026-05-08 20:26 | 66.95266 | -50.99180 | 2621 ft | 149 kts | 65° |
| 2026-05-08 20:27 | 66.95762 | -50.96872 | 2395 ft | 148 kts | 66° |
| 2026-05-08 20:27 | 66.96246 | -50.94600 | 2163 ft | 144 kts | 66° |
| 2026-05-08 20:27 | 66.96720 | -50.92381 | 1925 ft | 140 kts | 66° |
| 2026-05-08 20:27 | 66.97178 | -50.90228 | 1701 ft | 136 kts | 64° |
| 2026-05-08 20:28 | 66.97622 | -50.88144 | 1473 ft | 130 kts | 63° |
| 2026-05-08 20:28 | 66.98015 | -50.86297 | 1318 ft | 106 kts | 63° |
| 2026-05-08 20:28 | 66.98353 | -50.84705 | 1118 ft | 99 kts | 63° |
| 2026-05-08 20:28 | 66.98662 | -50.83202 | 989 ft | 94 kts | 64° |
| 2026-05-08 20:29 | 66.98970 | -50.81739 | 864 ft | 93 kts | 64° |
| 2026-05-08 20:29 | 66.99284 | -50.80332 | 690 ft | 90 kts | 64° |
| 2026-05-08 20:29 | 66.99565 | -50.78967 | 584 ft | 86 kts | 64° |
| 2026-05-08 20:29 | 66.99850 | -50.77638 | 459 ft | 88 kts | 64° |
| 2026-05-08 20:30 | 67.00136 | -50.76263 | 382 ft | 83 kts | 62° |
| 2026-05-08 20:30 | 67.00398 | -50.75041 | 267 ft | 76 kts | 63° |
| 2026-05-08 20:30 | 67.00634 | -50.73946 | 153 ft | 67 kts | 63° |
| 2026-05-08 20:30 | 67.00811 | -50.73124 | 152 ft | 38 kts | 63° |
| 2026-05-08 20:31 | 67.00928 | -50.72543 | 158 ft | 37 kts | 62° |
| 2026-05-08 20:31 | 67.00974 | -50.72168 | 163 ft | 14 kts | 143° |
| 2026-05-08 20:31 | 67.00911 | -50.72061 | 163 ft | 5 kts | 166° |
| 2026-05-08 20:31 | 67.00869 | -50.72019 | 163 ft | 10 kts | 154° |
| 2026-05-08 20:32 | 67.00800 | -50.71929 | 163 ft | 3 kts | 150° |
| 2026-05-08 20:32 | 67.00796 | -50.71824 | 164 ft | 12 kts | 54° |
| 2026-05-08 20:32 | 67.00847 | -50.71578 | 166 ft | 19 kts | 61° |
| 2026-05-08 20:32 | 67.00915 | -50.71254 | 170 ft | 22 kts | 60° |
| 2026-05-08 20:33 | 67.00976 | -50.70966 | 173 ft | 12 kts | 62° |
| 2026-05-08 20:33 | 67.00962 | -50.70812 | 175 ft | 10 kts | 93° |
| 2026-05-08 20:33 | 67.00949 | -50.70631 | 176 ft | 8 kts | 145° |
| 2026-05-08 20:33 | 67.00936 | -50.70630 | 176 ft | 0 kts | 230° |